sensor_id;sensor_type;location;lat;lon;timestamp;temperature;humidity
35363;DHT22;21463;47.480;8.214;2023-07-31T00:00:41;21.20;66.20
35363;DHT22;21463;47.480;8.214;2023-07-31T00:01:46;21.20;66.20
35363;DHT22;21463;47.480;8.214;2023-07-31T00:02:49;21.20;66.20
35363;DHT22;21463;47.480;8.214;2023-07-31T00:03:51;21.20;66.20
35363;DHT22;21463;47.480;8.214;2023-07-31T00:04:54;21.20;66.20
35363;DHT22;21463;47.480;8.214;2023-07-31T00:05:56;21.20;66.20
35363;DHT22;21463;47.480;8.214;2023-07-31T00:06:59;21.20;66.20
35363;DHT22;21463;47.480;8.214;2023-07-31T00:08:01;21.20;66.20
35363;DHT22;21463;47.480;8.214;2023-07-31T00:09:03;21.20;66.20
35363;DHT22;21463;47.480;8.214;2023-07-31T00:10:05;21.20;66.10
35363;DHT22;21463;47.480;8.214;2023-07-31T00:11:08;21.20;66.10
35363;DHT22;21463;47.480;8.214;2023-07-31T00:12:10;21.20;66.20
35363;DHT22;21463;47.480;8.214;2023-07-31T00:13:12;21.20;66.10
35363;DHT22;21463;47.480;8.214;2023-07-31T00:14:14;21.20;66.00
35363;DHT22;21463;47.480;8.214;2023-07-31T00:15:17;21.20;66.10
35363;DHT22;21463;47.480;8.214;2023-07-31T00:16:19;21.20;66.10
35363;DHT22;21463;47.480;8.214;2023-07-31T00:17:21;21.20;66.00
35363;DHT22;21463;47.480;8.214;2023-07-31T00:18:24;21.20;66.00
35363;DHT22;21463;47.480;8.214;2023-07-31T00:19:26;21.20;66.00
35363;DHT22;21463;47.480;8.214;2023-07-31T00:20:28;21.20;66.10
35363;DHT22;21463;47.480;8.214;2023-07-31T00:21:30;21.20;66.10
35363;DHT22;21463;47.480;8.214;2023-07-31T00:22:33;21.20;66.00
35363;DHT22;21463;47.480;8.214;2023-07-31T00:23:35;21.20;66.00
35363;DHT22;21463;47.480;8.214;2023-07-31T00:24:37;21.20;66.00
35363;DHT22;21463;47.480;8.214;2023-07-31T00:25:39;21.20;66.10
35363;DHT22;21463;47.480;8.214;2023-07-31T00:26:42;21.20;66.00
35363;DHT22;21463;47.480;8.214;2023-07-31T00:27:44;21.20;66.00
35363;DHT22;21463;47.480;8.214;2023-07-31T00:28:48;21.20;66.00
35363;DHT22;21463;47.480;8.214;2023-07-31T00:29:50;21.20;66.00
35363;DHT22;21463;47.480;8.214;2023-07-31T00:30:52;21.20;66.10
35363;DHT22;21463;47.480;8.214;2023-07-31T00:31:55;21.20;66.00
35363;DHT22;21463;47.480;8.214;2023-07-31T00:32:59;21.20;66.00
35363;DHT22;21463;47.480;8.214;2023-07-31T00:34:01;21.20;66.00
35363;DHT22;21463;47.480;8.214;2023-07-31T00:35:03;21.20;66.00
35363;DHT22;21463;47.480;8.214;2023-07-31T00:36:06;21.20;66.00
35363;DHT22;21463;47.480;8.214;2023-07-31T00:37:08;21.20;66.00
35363;DHT22;21463;47.480;8.214;2023-07-31T00:38:10;21.20;66.00
35363;DHT22;21463;47.480;8.214;2023-07-31T00:39:14;21.20;65.90
35363;DHT22;21463;47.480;8.214;2023-07-31T00:40:17;21.20;66.00
35363;DHT22;21463;47.480;8.214;2023-07-31T00:41:19;21.20;65.90
35363;DHT22;21463;47.480;8.214;2023-07-31T00:42:22;21.20;66.00
35363;DHT22;21463;47.480;8.214;2023-07-31T00:43:25;21.20;66.00
35363;DHT22;21463;47.480;8.214;2023-07-31T00:44:29;21.20;65.90
35363;DHT22;21463;47.480;8.214;2023-07-31T00:45:32;21.20;65.90
35363;DHT22;21463;47.480;8.214;2023-07-31T00:46:35;21.20;65.90
35363;DHT22;21463;47.480;8.214;2023-07-31T00:47:37;21.20;66.00
35363;DHT22;21463;47.480;8.214;2023-07-31T00:48:39;21.20;65.90
35363;DHT22;21463;47.480;8.214;2023-07-31T00:49:42;21.20;66.00
35363;DHT22;21463;47.480;8.214;2023-07-31T00:50:45;21.20;65.90
35363;DHT22;21463;47.480;8.214;2023-07-31T00:51:47;21.20;65.90
35363;DHT22;21463;47.480;8.214;2023-07-31T00:52:50;21.20;65.90
35363;DHT22;21463;47.480;8.214;2023-07-31T00:53:52;21.20;65.90
35363;DHT22;21463;47.480;8.214;2023-07-31T00:54:56;21.20;65.90
35363;DHT22;21463;47.480;8.214;2023-07-31T00:55:58;21.20;65.90
35363;DHT22;21463;47.480;8.214;2023-07-31T00:57:01;21.20;65.90
35363;DHT22;21463;47.480;8.214;2023-07-31T00:58:03;21.20;65.90
35363;DHT22;21463;47.480;8.214;2023-07-31T00:59:05;21.20;65.90
35363;DHT22;21463;47.480;8.214;2023-07-31T01:00:08;21.20;65.90
35363;DHT22;21463;47.480;8.214;2023-07-31T01:01:10;21.20;65.80
35363;DHT22;21463;47.480;8.214;2023-07-31T01:02:13;21.10;65.80
35363;DHT22;21463;47.480;8.214;2023-07-31T01:03:15;21.20;65.90
35363;DHT22;21463;47.480;8.214;2023-07-31T01:04:18;21.20;65.90
35363;DHT22;21463;47.480;8.214;2023-07-31T01:05:33;21.10;65.80
35363;DHT22;21463;47.480;8.214;2023-07-31T01:10:08;21.20;65.80
35363;DHT22;21463;47.480;8.214;2023-07-31T01:11:19;21.20;65.80
35363;DHT22;21463;47.480;8.214;2023-07-31T01:12:24;21.20;65.80
35363;DHT22;21463;47.480;8.214;2023-07-31T01:13:30;21.20;65.80
35363;DHT22;21463;47.480;8.214;2023-07-31T01:14:32;21.20;65.80
35363;DHT22;21463;47.480;8.214;2023-07-31T01:15:34;21.20;65.80
35363;DHT22;21463;47.480;8.214;2023-07-31T01:16:39;21.20;65.80
35363;DHT22;21463;47.480;8.214;2023-07-31T01:17:43;21.20;65.80
35363;DHT22;21463;47.480;8.214;2023-07-31T01:18:45;21.10;65.80
35363;DHT22;21463;47.480;8.214;2023-07-31T01:19:47;21.20;65.80
35363;DHT22;21463;47.480;8.214;2023-07-31T01:20:54;21.20;65.80
35363;DHT22;21463;47.480;8.214;2023-07-31T01:22:10;21.20;65.80
35363;DHT22;21463;47.480;8.214;2023-07-31T01:24:36;21.20;65.80
35363;DHT22;21463;47.480;8.214;2023-07-31T01:27:05;21.20;65.70
35363;DHT22;21463;47.480;8.214;2023-07-31T01:28:10;21.20;65.70
35363;DHT22;21463;47.480;8.214;2023-07-31T01:29:22;21.20;65.70
35363;DHT22;21463;47.480;8.214;2023-07-31T01:30:26;21.20;65.70
35363;DHT22;21463;47.480;8.214;2023-07-31T01:31:30;21.20;65.70
35363;DHT22;21463;47.480;8.214;2023-07-31T01:32:33;21.10;65.60
35363;DHT22;21463;47.480;8.214;2023-07-31T01:33:36;21.20;65.70
35363;DHT22;21463;47.480;8.214;2023-07-31T01:34:38;21.10;65.70
35363;DHT22;21463;47.480;8.214;2023-07-31T01:35:43;21.20;65.70
35363;DHT22;21463;47.480;8.214;2023-07-31T01:36:45;21.20;65.70
35363;DHT22;21463;47.480;8.214;2023-07-31T01:37:48;21.20;65.70
35363;DHT22;21463;47.480;8.214;2023-07-31T01:38:50;21.20;65.70
35363;DHT22;21463;47.480;8.214;2023-07-31T01:39:52;21.20;65.70
35363;DHT22;21463;47.480;8.214;2023-07-31T01:40:54;21.10;65.60
35363;DHT22;21463;47.480;8.214;2023-07-31T01:42:00;21.20;65.70
35363;DHT22;21463;47.480;8.214;2023-07-31T01:43:03;21.20;65.70
35363;DHT22;21463;47.480;8.214;2023-07-31T01:44:05;21.20;65.70
35363;DHT22;21463;47.480;8.214;2023-07-31T01:45:08;21.20;65.70
35363;DHT22;21463;47.480;8.214;2023-07-31T01:46:10;21.10;65.60
35363;DHT22;21463;47.480;8.214;2023-07-31T01:47:12;21.20;65.70
35363;DHT22;21463;47.480;8.214;2023-07-31T01:48:15;21.10;65.60
35363;DHT22;21463;47.480;8.214;2023-07-31T01:49:17;21.10;65.60
35363;DHT22;21463;47.480;8.214;2023-07-31T01:50:20;21.20;65.60
35363;DHT22;21463;47.480;8.214;2023-07-31T01:51:22;21.20;65.60
35363;DHT22;21463;47.480;8.214;2023-07-31T01:52:25;21.20;65.60
35363;DHT22;21463;47.480;8.214;2023-07-31T01:53:27;21.20;65.60
35363;DHT22;21463;47.480;8.214;2023-07-31T01:54:30;21.20;65.60
35363;DHT22;21463;47.480;8.214;2023-07-31T01:55:32;21.40;65.70
35363;DHT22;21463;47.480;8.214;2023-07-31T01:56:35;21.20;65.60
35363;DHT22;21463;47.480;8.214;2023-07-31T01:57:37;21.10;65.50
35363;DHT22;21463;47.480;8.214;2023-07-31T01:58:39;21.10;65.50
35363;DHT22;21463;47.480;8.214;2023-07-31T01:59:42;21.10;65.50
35363;DHT22;21463;47.480;8.214;2023-07-31T02:00:44;21.20;65.60
35363;DHT22;21463;47.480;8.214;2023-07-31T02:01:46;21.20;65.60
35363;DHT22;21463;47.480;8.214;2023-07-31T02:02:49;21.20;65.60
35363;DHT22;21463;47.480;8.214;2023-07-31T02:03:54;21.20;65.60
35363;DHT22;21463;47.480;8.214;2023-07-31T02:04:57;21.20;65.50
35363;DHT22;21463;47.480;8.214;2023-07-31T02:06:00;21.10;65.50
35363;DHT22;21463;47.480;8.214;2023-07-31T02:07:02;21.20;65.60
35363;DHT22;21463;47.480;8.214;2023-07-31T02:08:04;21.20;65.50
35363;DHT22;21463;47.480;8.214;2023-07-31T02:09:07;21.20;65.50
35363;DHT22;21463;47.480;8.214;2023-07-31T02:10:10;21.20;65.50
35363;DHT22;21463;47.480;8.214;2023-07-31T02:11:15;21.10;65.40
35363;DHT22;21463;47.480;8.214;2023-07-31T02:12:17;21.20;65.70
35363;DHT22;21463;47.480;8.214;2023-07-31T02:13:19;21.20;65.50
35363;DHT22;21463;47.480;8.214;2023-07-31T02:14:21;21.20;65.50
35363;DHT22;21463;47.480;8.214;2023-07-31T02:15:24;21.20;65.50
35363;DHT22;21463;47.480;8.214;2023-07-31T02:16:26;21.20;65.50
35363;DHT22;21463;47.480;8.214;2023-07-31T02:17:28;21.20;65.50
35363;DHT22;21463;47.480;8.214;2023-07-31T02:18:31;21.10;65.40
35363;DHT22;21463;47.480;8.214;2023-07-31T02:19:34;21.20;65.50
35363;DHT22;21463;47.480;8.214;2023-07-31T02:20:36;21.20;65.50
35363;DHT22;21463;47.480;8.214;2023-07-31T02:21:38;21.20;65.40
35363;DHT22;21463;47.480;8.214;2023-07-31T02:22:41;21.20;65.40
35363;DHT22;21463;47.480;8.214;2023-07-31T02:23:43;21.10;65.40
35363;DHT22;21463;47.480;8.214;2023-07-31T02:24:48;21.20;65.40
35363;DHT22;21463;47.480;8.214;2023-07-31T02:25:50;21.20;65.40
35363;DHT22;21463;47.480;8.214;2023-07-31T02:26:53;21.20;65.40
35363;DHT22;21463;47.480;8.214;2023-07-31T02:27:55;21.20;65.40
35363;DHT22;21463;47.480;8.214;2023-07-31T02:28:57;21.20;65.40
35363;DHT22;21463;47.480;8.214;2023-07-31T02:30:00;21.10;65.30
35363;DHT22;21463;47.480;8.214;2023-07-31T02:31:02;21.10;65.40
35363;DHT22;21463;47.480;8.214;2023-07-31T02:32:04;21.20;65.40
35363;DHT22;21463;47.480;8.214;2023-07-31T02:33:07;21.20;65.50
35363;DHT22;21463;47.480;8.214;2023-07-31T02:34:09;21.20;65.40
35363;DHT22;21463;47.480;8.214;2023-07-31T02:35:11;21.20;65.30
35363;DHT22;21463;47.480;8.214;2023-07-31T02:36:17;21.10;65.20
35363;DHT22;21463;47.480;8.214;2023-07-31T02:37:19;21.20;65.30
35363;DHT22;21463;47.480;8.214;2023-07-31T02:38:22;21.20;65.30
35363;DHT22;21463;47.480;8.214;2023-07-31T02:39:24;21.10;65.20
35363;DHT22;21463;47.480;8.214;2023-07-31T02:40:26;21.20;65.30
35363;DHT22;21463;47.480;8.214;2023-07-31T02:41:31;21.20;65.20
35363;DHT22;21463;47.480;8.214;2023-07-31T02:42:33;21.20;65.30
35363;DHT22;21463;47.480;8.214;2023-07-31T02:43:35;21.20;65.20
35363;DHT22;21463;47.480;8.214;2023-07-31T02:44:37;21.20;65.20
35363;DHT22;21463;47.480;8.214;2023-07-31T02:45:40;21.10;65.10
35363;DHT22;21463;47.480;8.214;2023-07-31T02:46:45;21.20;65.20
35363;DHT22;21463;47.480;8.214;2023-07-31T02:47:48;21.20;65.20
35363;DHT22;21463;47.480;8.214;2023-07-31T02:48:53;21.20;65.10
35363;DHT22;21463;47.480;8.214;2023-07-31T02:49:56;21.10;65.20
35363;DHT22;21463;47.480;8.214;2023-07-31T02:50:58;21.10;65.10
35363;DHT22;21463;47.480;8.214;2023-07-31T02:52:00;21.20;65.20
35363;DHT22;21463;47.480;8.214;2023-07-31T02:53:02;21.10;65.00
35363;DHT22;21463;47.480;8.214;2023-07-31T02:54:05;21.20;65.10
35363;DHT22;21463;47.480;8.214;2023-07-31T02:55:07;21.20;65.10
35363;DHT22;21463;47.480;8.214;2023-07-31T02:56:09;21.20;65.10
35363;DHT22;21463;47.480;8.214;2023-07-31T02:57:12;21.20;65.10
35363;DHT22;21463;47.480;8.214;2023-07-31T02:58:14;21.20;65.10
35363;DHT22;21463;47.480;8.214;2023-07-31T02:59:16;21.20;65.10
35363;DHT22;21463;47.480;8.214;2023-07-31T03:00:19;21.10;65.00
35363;DHT22;21463;47.480;8.214;2023-07-31T03:01:22;21.20;65.00
35363;DHT22;21463;47.480;8.214;2023-07-31T03:02:24;21.20;65.00
35363;DHT22;21463;47.480;8.214;2023-07-31T03:03:26;21.20;65.00
35363;DHT22;21463;47.480;8.214;2023-07-31T03:04:30;21.10;64.90
35363;DHT22;21463;47.480;8.214;2023-07-31T03:05:32;21.20;65.00
35363;DHT22;21463;47.480;8.214;2023-07-31T03:06:34;21.20;64.90
35363;DHT22;21463;47.480;8.214;2023-07-31T03:07:37;21.20;65.00
35363;DHT22;21463;47.480;8.214;2023-07-31T03:08:39;21.20;65.00
35363;DHT22;21463;47.480;8.214;2023-07-31T03:09:41;21.20;64.90
35363;DHT22;21463;47.480;8.214;2023-07-31T03:10:43;21.20;64.90
35363;DHT22;21463;47.480;8.214;2023-07-31T03:11:46;21.20;64.90
35363;DHT22;21463;47.480;8.214;2023-07-31T03:12:48;21.20;64.90
35363;DHT22;21463;47.480;8.214;2023-07-31T03:13:50;21.20;64.90
35363;DHT22;21463;47.480;8.214;2023-07-31T03:14:53;21.20;64.90
35363;DHT22;21463;47.480;8.214;2023-07-31T03:15:55;21.10;64.80
35363;DHT22;21463;47.480;8.214;2023-07-31T03:16:57;21.20;64.90
35363;DHT22;21463;47.480;8.214;2023-07-31T03:18:02;21.10;64.80
35363;DHT22;21463;47.480;8.214;2023-07-31T03:19:04;21.20;64.80
35363;DHT22;21463;47.480;8.214;2023-07-31T03:20:06;21.20;64.80
35363;DHT22;21463;47.480;8.214;2023-07-31T03:21:11;21.20;64.80
35363;DHT22;21463;47.480;8.214;2023-07-31T03:22:14;21.10;64.70
35363;DHT22;21463;47.480;8.214;2023-07-31T03:23:16;21.10;64.70
35363;DHT22;21463;47.480;8.214;2023-07-31T03:24:21;21.20;64.70
35363;DHT22;21463;47.480;8.214;2023-07-31T03:25:23;21.10;64.70
35363;DHT22;21463;47.480;8.214;2023-07-31T03:26:25;21.20;64.70
35363;DHT22;21463;47.480;8.214;2023-07-31T03:27:28;21.20;64.70
35363;DHT22;21463;47.480;8.214;2023-07-31T03:28:30;21.10;64.60
35363;DHT22;21463;47.480;8.214;2023-07-31T03:29:32;21.10;64.60
35363;DHT22;21463;47.480;8.214;2023-07-31T03:30:35;21.20;64.80
35363;DHT22;21463;47.480;8.214;2023-07-31T03:31:40;21.10;64.60
35363;DHT22;21463;47.480;8.214;2023-07-31T03:32:42;21.20;64.70
35363;DHT22;21463;47.480;8.214;2023-07-31T03:33:45;21.20;64.70
35363;DHT22;21463;47.480;8.214;2023-07-31T03:34:47;21.10;64.60
35363;DHT22;21463;47.480;8.214;2023-07-31T03:35:49;21.20;64.60
35363;DHT22;21463;47.480;8.214;2023-07-31T03:36:54;21.20;64.60
35363;DHT22;21463;47.480;8.214;2023-07-31T03:37:57;21.10;64.50
35363;DHT22;21463;47.480;8.214;2023-07-31T03:38:59;21.20;64.60
35363;DHT22;21463;47.480;8.214;2023-07-31T03:40:01;21.20;64.60
35363;DHT22;21463;47.480;8.214;2023-07-31T03:41:05;21.20;64.60
35363;DHT22;21463;47.480;8.214;2023-07-31T03:42:08;21.10;64.50
35363;DHT22;21463;47.480;8.214;2023-07-31T03:43:11;21.20;64.50
35363;DHT22;21463;47.480;8.214;2023-07-31T03:44:15;21.20;64.50
35363;DHT22;21463;47.480;8.214;2023-07-31T03:45:17;21.20;64.50
35363;DHT22;21463;47.480;8.214;2023-07-31T03:46:20;21.10;64.40
35363;DHT22;21463;47.480;8.214;2023-07-31T03:47:23;21.20;64.50
35363;DHT22;21463;47.480;8.214;2023-07-31T03:48:26;21.20;64.50
35363;DHT22;21463;47.480;8.214;2023-07-31T03:49:29;21.20;64.50
35363;DHT22;21463;47.480;8.214;2023-07-31T03:50:31;21.10;64.40
35363;DHT22;21463;47.480;8.214;2023-07-31T03:51:35;21.20;64.40
35363;DHT22;21463;47.480;8.214;2023-07-31T03:52:38;21.20;64.50
35363;DHT22;21463;47.480;8.214;2023-07-31T03:53:40;21.20;64.40
35363;DHT22;21463;47.480;8.214;2023-07-31T03:54:42;21.10;64.30
35363;DHT22;21463;47.480;8.214;2023-07-31T03:55:48;21.20;64.40
35363;DHT22;21463;47.480;8.214;2023-07-31T03:56:51;21.10;64.30
35363;DHT22;21463;47.480;8.214;2023-07-31T03:57:53;21.10;64.30
35363;DHT22;21463;47.480;8.214;2023-07-31T03:58:58;21.20;64.30
35363;DHT22;21463;47.480;8.214;2023-07-31T04:00:00;21.20;64.30
35363;DHT22;21463;47.480;8.214;2023-07-31T04:01:03;21.20;64.30
35363;DHT22;21463;47.480;8.214;2023-07-31T04:02:05;21.10;64.20
35363;DHT22;21463;47.480;8.214;2023-07-31T04:03:08;21.20;64.30
35363;DHT22;21463;47.480;8.214;2023-07-31T04:04:10;21.10;64.20
35363;DHT22;21463;47.480;8.214;2023-07-31T04:05:12;21.10;64.20
35363;DHT22;21463;47.480;8.214;2023-07-31T04:06:15;21.10;64.20
35363;DHT22;21463;47.480;8.214;2023-07-31T04:07:20;21.10;64.20
35363;DHT22;21463;47.480;8.214;2023-07-31T04:08:25;21.20;64.20
35363;DHT22;21463;47.480;8.214;2023-07-31T04:09:27;21.10;64.10
35363;DHT22;21463;47.480;8.214;2023-07-31T04:10:29;21.10;64.20
35363;DHT22;21463;47.480;8.214;2023-07-31T04:11:33;21.20;64.20
35363;DHT22;21463;47.480;8.214;2023-07-31T04:12:35;21.10;64.10
35363;DHT22;21463;47.480;8.214;2023-07-31T04:13:38;21.10;64.10
35363;DHT22;21463;47.480;8.214;2023-07-31T04:14:40;21.20;64.20
35363;DHT22;21463;47.480;8.214;2023-07-31T04:15:42;21.10;64.10
35363;DHT22;21463;47.480;8.214;2023-07-31T04:16:45;21.20;64.10
35363;DHT22;21463;47.480;8.214;2023-07-31T04:17:47;21.20;64.10
35363;DHT22;21463;47.480;8.214;2023-07-31T04:18:49;21.10;64.10
35363;DHT22;21463;47.480;8.214;2023-07-31T04:19:52;21.20;64.10
35363;DHT22;21463;47.480;8.214;2023-07-31T04:20:54;21.20;64.10
35363;DHT22;21463;47.480;8.214;2023-07-31T04:21:57;21.10;64.00
35363;DHT22;21463;47.480;8.214;2023-07-31T04:23:03;21.20;64.10
35363;DHT22;21463;47.480;8.214;2023-07-31T04:24:05;21.10;64.00
35363;DHT22;21463;47.480;8.214;2023-07-31T04:25:07;21.10;64.00
35363;DHT22;21463;47.480;8.214;2023-07-31T04:26:10;21.20;64.00
35363;DHT22;21463;47.480;8.214;2023-07-31T04:27:13;21.10;64.10
35363;DHT22;21463;47.480;8.214;2023-07-31T04:28:15;21.10;64.00
35363;DHT22;21463;47.480;8.214;2023-07-31T04:29:17;21.10;64.00
35363;DHT22;21463;47.480;8.214;2023-07-31T04:30:20;21.20;64.00
35363;DHT22;21463;47.480;8.214;2023-07-31T04:31:22;21.10;64.00
35363;DHT22;21463;47.480;8.214;2023-07-31T04:32:27;21.20;64.00
35363;DHT22;21463;47.480;8.214;2023-07-31T04:33:31;21.10;63.90
35363;DHT22;21463;47.480;8.214;2023-07-31T04:34:33;21.10;63.90
35363;DHT22;21463;47.480;8.214;2023-07-31T04:35:35;21.10;64.00
35363;DHT22;21463;47.480;8.214;2023-07-31T04:36:37;21.10;63.90
35363;DHT22;21463;47.480;8.214;2023-07-31T04:37:40;21.20;64.00
35363;DHT22;21463;47.480;8.214;2023-07-31T04:38:43;21.20;63.90
35363;DHT22;21463;47.480;8.214;2023-07-31T04:39:45;21.20;63.90
35363;DHT22;21463;47.480;8.214;2023-07-31T04:40:48;21.10;63.90
35363;DHT22;21463;47.480;8.214;2023-07-31T04:41:50;20.10;63.30
35363;DHT22;21463;47.480;8.214;2023-07-31T04:42:52;21.10;63.90
35363;DHT22;21463;47.480;8.214;2023-07-31T04:43:55;21.10;63.90
35363;DHT22;21463;47.480;8.214;2023-07-31T04:44:57;21.20;63.90
35363;DHT22;21463;47.480;8.214;2023-07-31T04:46:02;21.10;63.80
35363;DHT22;21463;47.480;8.214;2023-07-31T04:47:05;21.10;63.90
35363;DHT22;21463;47.480;8.214;2023-07-31T04:48:07;21.10;63.90
35363;DHT22;21463;47.480;8.214;2023-07-31T04:49:10;21.10;63.80
35363;DHT22;21463;47.480;8.214;2023-07-31T04:50:12;21.10;63.80
35363;DHT22;21463;47.480;8.214;2023-07-31T04:51:15;21.20;63.90
35363;DHT22;21463;47.480;8.214;2023-07-31T04:52:17;21.20;63.90
35363;DHT22;21463;47.480;8.214;2023-07-31T04:53:19;21.20;63.90
35363;DHT22;21463;47.480;8.214;2023-07-31T04:54:21;21.20;63.90
35363;DHT22;21463;47.480;8.214;2023-07-31T04:55:27;21.20;63.90
35363;DHT22;21463;47.480;8.214;2023-07-31T04:56:32;21.10;63.80
35363;DHT22;21463;47.480;8.214;2023-07-31T04:57:35;21.10;63.80
35363;DHT22;21463;47.480;8.214;2023-07-31T04:58:37;21.10;63.80
35363;DHT22;21463;47.480;8.214;2023-07-31T04:59:39;21.20;63.80
35363;DHT22;21463;47.480;8.214;2023-07-31T05:00:41;21.20;63.90
35363;DHT22;21463;47.480;8.214;2023-07-31T05:01:43;21.10;63.80
35363;DHT22;21463;47.480;8.214;2023-07-31T05:02:47;21.20;63.80
35363;DHT22;21463;47.480;8.214;2023-07-31T05:03:49;21.10;63.80
35363;DHT22;21463;47.480;8.214;2023-07-31T05:04:52;21.10;63.80
35363;DHT22;21463;47.480;8.214;2023-07-31T05:05:54;21.20;63.90
35363;DHT22;21463;47.480;8.214;2023-07-31T05:06:56;21.10;63.80
35363;DHT22;21463;47.480;8.214;2023-07-31T05:08:01;21.10;63.80
35363;DHT22;21463;47.480;8.214;2023-07-31T05:09:03;21.20;63.80
35363;DHT22;21463;47.480;8.214;2023-07-31T05:10:06;21.20;63.80
35363;DHT22;21463;47.480;8.214;2023-07-31T05:11:08;21.10;63.80
35363;DHT22;21463;47.480;8.214;2023-07-31T05:12:10;21.20;63.80
35363;DHT22;21463;47.480;8.214;2023-07-31T05:13:13;21.10;63.80
35363;DHT22;21463;47.480;8.214;2023-07-31T05:14:18;21.20;63.80
35363;DHT22;21463;47.480;8.214;2023-07-31T05:15:20;21.10;63.80
35363;DHT22;21463;47.480;8.214;2023-07-31T05:16:22;21.10;63.80
35363;DHT22;21463;47.480;8.214;2023-07-31T05:17:25;21.20;63.80
35363;DHT22;21463;47.480;8.214;2023-07-31T05:18:27;21.10;63.70
35363;DHT22;21463;47.480;8.214;2023-07-31T05:19:29;21.20;63.80
35363;DHT22;21463;47.480;8.214;2023-07-31T05:20:31;21.10;63.70
35363;DHT22;21463;47.480;8.214;2023-07-31T05:21:35;21.10;63.70
35363;DHT22;21463;47.480;8.214;2023-07-31T05:22:37;21.10;63.70
35363;DHT22;21463;47.480;8.214;2023-07-31T05:23:39;21.20;63.80
35363;DHT22;21463;47.480;8.214;2023-07-31T05:24:42;21.20;63.70
35363;DHT22;21463;47.480;8.214;2023-07-31T05:25:44;21.10;63.70
35363;DHT22;21463;47.480;8.214;2023-07-31T05:26:46;21.10;63.60
35363;DHT22;21463;47.480;8.214;2023-07-31T05:27:49;21.20;63.70
35363;DHT22;21463;47.480;8.214;2023-07-31T05:28:51;21.20;63.70
35363;DHT22;21463;47.480;8.214;2023-07-31T05:29:53;21.20;63.70
35363;DHT22;21463;47.480;8.214;2023-07-31T05:30:59;21.10;63.60
35363;DHT22;21463;47.480;8.214;2023-07-31T05:32:02;21.10;63.50
35363;DHT22;21463;47.480;8.214;2023-07-31T05:33:04;21.20;63.60
35363;DHT22;21463;47.480;8.214;2023-07-31T05:34:06;21.20;63.60
35363;DHT22;21463;47.480;8.214;2023-07-31T05:35:08;21.20;63.60
35363;DHT22;21463;47.480;8.214;2023-07-31T05:36:11;21.20;63.50
35363;DHT22;21463;47.480;8.214;2023-07-31T05:37:13;21.20;63.60
35363;DHT22;21463;47.480;8.214;2023-07-31T05:38:16;21.20;63.60
35363;DHT22;21463;47.480;8.214;2023-07-31T05:39:18;21.20;63.50
35363;DHT22;21463;47.480;8.214;2023-07-31T05:40:21;21.10;63.50
35363;DHT22;21463;47.480;8.214;2023-07-31T05:41:24;21.20;63.50
35363;DHT22;21463;47.480;8.214;2023-07-31T05:42:26;21.10;63.40
35363;DHT22;21463;47.480;8.214;2023-07-31T05:43:28;21.20;63.50
35363;DHT22;21463;47.480;8.214;2023-07-31T05:44:31;21.20;63.50
35363;DHT22;21463;47.480;8.214;2023-07-31T05:45:33;21.20;63.50
35363;DHT22;21463;47.480;8.214;2023-07-31T05:46:35;21.20;63.50
35363;DHT22;21463;47.480;8.214;2023-07-31T05:47:38;21.20;63.60
35363;DHT22;21463;47.480;8.214;2023-07-31T05:48:40;21.20;63.50
35363;DHT22;21463;47.480;8.214;2023-07-31T05:49:42;21.20;63.50
35363;DHT22;21463;47.480;8.214;2023-07-31T05:50:44;21.20;63.50
35363;DHT22;21463;47.480;8.214;2023-07-31T05:51:47;21.20;63.50
35363;DHT22;21463;47.480;8.214;2023-07-31T05:52:49;21.20;63.40
35363;DHT22;21463;47.480;8.214;2023-07-31T05:53:51;21.20;63.40
35363;DHT22;21463;47.480;8.214;2023-07-31T05:54:58;21.20;63.40
35363;DHT22;21463;47.480;8.214;2023-07-31T05:56:00;21.20;63.40
35363;DHT22;21463;47.480;8.214;2023-07-31T05:57:02;21.20;63.40
35363;DHT22;21463;47.480;8.214;2023-07-31T05:58:05;21.20;63.40
35363;DHT22;21463;47.480;8.214;2023-07-31T05:59:08;21.20;63.40
35363;DHT22;21463;47.480;8.214;2023-07-31T06:00:11;21.20;63.40
35363;DHT22;21463;47.480;8.214;2023-07-31T06:01:14;21.20;63.90
35363;DHT22;21463;47.480;8.214;2023-07-31T06:02:17;21.20;63.40
35363;DHT22;21463;47.480;8.214;2023-07-31T06:03:19;21.20;63.30
35363;DHT22;21463;47.480;8.214;2023-07-31T06:04:22;21.20;63.90
35363;DHT22;21463;47.480;8.214;2023-07-31T06:05:27;21.20;63.30
35363;DHT22;21463;47.480;8.214;2023-07-31T06:06:32;21.20;63.40
35363;DHT22;21463;47.480;8.214;2023-07-31T06:07:34;21.20;63.40
35363;DHT22;21463;47.480;8.214;2023-07-31T06:08:36;21.20;63.30
35363;DHT22;21463;47.480;8.214;2023-07-31T06:09:38;21.30;63.40
35363;DHT22;21463;47.480;8.214;2023-07-31T06:10:41;21.20;63.30
35363;DHT22;21463;47.480;8.214;2023-07-31T06:11:43;21.20;63.30
35363;DHT22;21463;47.480;8.214;2023-07-31T06:12:45;21.20;63.30
35363;DHT22;21463;47.480;8.214;2023-07-31T06:13:47;21.30;63.30
35363;DHT22;21463;47.480;8.214;2023-07-31T06:14:51;21.20;63.30
35363;DHT22;21463;47.480;8.214;2023-07-31T06:15:55;21.20;63.30
35363;DHT22;21463;47.480;8.214;2023-07-31T06:16:57;21.30;63.30
35363;DHT22;21463;47.480;8.214;2023-07-31T06:17:59;21.20;63.30
35363;DHT22;21463;47.480;8.214;2023-07-31T06:19:04;21.30;63.30
35363;DHT22;21463;47.480;8.214;2023-07-31T06:20:06;21.20;63.20
35363;DHT22;21463;47.480;8.214;2023-07-31T06:21:09;21.20;63.20
35363;DHT22;21463;47.480;8.214;2023-07-31T06:22:11;21.20;63.30
35363;DHT22;21463;47.480;8.214;2023-07-31T06:23:14;21.30;63.20
35363;DHT22;21463;47.480;8.214;2023-07-31T06:24:16;21.20;63.20
35363;DHT22;21463;47.480;8.214;2023-07-31T06:25:21;21.20;63.20
35363;DHT22;21463;47.480;8.214;2023-07-31T06:26:28;21.30;63.20
35363;DHT22;21463;47.480;8.214;2023-07-31T06:27:31;21.20;63.20
35363;DHT22;21463;47.480;8.214;2023-07-31T06:28:33;21.30;63.20
35363;DHT22;21463;47.480;8.214;2023-07-31T06:29:35;21.30;63.20
35363;DHT22;21463;47.480;8.214;2023-07-31T06:30:38;21.30;63.20
35363;DHT22;21463;47.480;8.214;2023-07-31T06:31:40;21.30;63.20
35363;DHT22;21463;47.480;8.214;2023-07-31T06:32:43;21.30;63.20
35363;DHT22;21463;47.480;8.214;2023-07-31T06:33:45;21.20;63.10
35363;DHT22;21463;47.480;8.214;2023-07-31T06:34:47;21.20;63.10
35363;DHT22;21463;47.480;8.214;2023-07-31T06:35:50;21.30;63.10
35363;DHT22;21463;47.480;8.214;2023-07-31T06:36:52;21.20;63.10
35363;DHT22;21463;47.480;8.214;2023-07-31T06:37:54;21.30;63.10
35363;DHT22;21463;47.480;8.214;2023-07-31T06:38:56;21.20;63.10
35363;DHT22;21463;47.480;8.214;2023-07-31T06:39:59;21.30;63.10
35363;DHT22;21463;47.480;8.214;2023-07-31T06:41:01;21.30;63.10
35363;DHT22;21463;47.480;8.214;2023-07-31T06:42:03;21.20;63.00
35363;DHT22;21463;47.480;8.214;2023-07-31T06:43:06;21.20;63.00